createdAt,value
2018-04-22T00:01:32.533Z,49.70
2018-04-22T00:03:37.546Z,49.70
2018-04-22T00:05:42.515Z,49.80
2018-04-22T00:07:46.347Z,49.80
2018-04-22T00:09:50.500Z,49.80
2018-04-22T00:11:55.095Z,50.10
2018-04-22T00:13:58.993Z,50.10
2018-04-22T00:16:03.625Z,50.10
2018-04-22T00:18:07.432Z,50.00
2018-04-22T00:20:11.267Z,50.10
2018-04-22T00:22:15.217Z,50.10
2018-04-22T00:24:20.467Z,50.10
2018-04-22T00:26:25.132Z,50.20
2018-04-22T00:28:29.854Z,50.30
2018-04-22T00:30:34.018Z,50.20
2018-04-22T00:32:37.849Z,50.30
2018-04-22T00:34:41.874Z,50.60
2018-04-22T00:36:46.546Z,50.30
2018-04-22T00:38:51.265Z,50.30
2018-04-22T00:40:55.132Z,50.30
2018-04-22T00:42:59.989Z,50.30
2018-04-22T00:45:06.013Z,50.30
2018-04-22T00:47:09.814Z,50.10
2018-04-22T00:49:15.833Z,50.20
2018-04-22T00:51:19.697Z,50.20
2018-04-22T00:53:23.781Z,50.30
2018-04-22T00:55:28.661Z,50.40
2018-04-22T00:57:33.359Z,50.40
2018-04-22T00:59:37.186Z,50.40
2018-04-22T01:01:41.029Z,50.30
2018-04-22T01:03:44.877Z,50.20
2018-04-22T01:05:48.700Z,50.10
2018-04-22T01:07:52.798Z,50.50
2018-04-22T01:09:56.799Z,50.70
2018-04-22T01:12:00.644Z,50.90
2018-04-22T01:14:04.986Z,50.80
2018-04-22T01:16:08.857Z,51.00
2018-04-22T01:18:12.778Z,51.00
2018-04-22T01:20:17.111Z,51.30
2018-04-22T01:24:17.638Z,51.10
2018-04-22T01:26:21.766Z,51.10
2018-04-22T01:28:27.272Z,51.90
2018-04-22T01:30:31.056Z,51.40
2018-04-22T01:32:34.951Z,51.80
2018-04-22T01:34:38.768Z,51.90
2018-04-22T01:36:42.569Z,52.10
2018-04-22T01:38:46.778Z,52.30
2018-04-22T01:40:51.412Z,52.20
2018-04-22T01:42:55.177Z,52.10
2018-04-22T01:45:01.422Z,51.90
2018-04-22T01:47:06.048Z,52.50
2018-04-22T01:49:09.896Z,52.10
2018-04-22T01:51:14.039Z,52.10
2018-04-22T01:53:18.746Z,51.90
2018-04-22T01:55:23.448Z,52.00
2018-04-22T01:57:27.821Z,51.90
2018-04-22T01:59:31.633Z,52.20
2018-04-22T02:01:36.245Z,52.30
2018-04-22T02:03:40.396Z,52.20
2018-04-22T02:05:44.213Z,52.50
2018-04-22T02:07:48.079Z,52.80
2018-04-22T02:09:53.180Z,53.20
2018-04-22T02:11:57.041Z,53.10
2018-04-22T02:14:01.570Z,53.80
2018-04-22T02:16:05.824Z,53.80
2018-04-22T02:18:09.669Z,54.00
2018-04-22T02:20:14.215Z,54.40
2018-04-22T02:22:18.557Z,54.30
2018-04-22T02:24:22.393Z,54.70
2018-04-22T02:26:27.020Z,55.50
2018-04-22T02:28:32.881Z,55.20
2018-04-22T02:30:36.745Z,55.20
2018-04-22T02:32:40.674Z,55.40
2018-04-22T02:34:45.552Z,55.20
2018-04-22T02:36:49.409Z,55.20
2018-04-22T02:38:54.044Z,55.10
2018-04-22T02:41:00.676Z,55.00
2018-04-22T02:43:04.482Z,55.00
2018-04-22T02:45:08.309Z,55.10
2018-04-22T02:47:13.297Z,55.00
2018-04-22T02:49:17.134Z,55.00
2018-04-22T02:51:21.045Z,54.90
2018-04-22T02:53:25.676Z,54.70
2018-04-22T02:55:31.106Z,54.60
2018-04-22T02:57:34.984Z,54.40
2018-04-22T02:59:39.100Z,54.70
2018-04-22T03:01:43.393Z,54.60
2018-04-22T03:03:47.142Z,55.00
2018-04-22T03:05:53.048Z,56.50
2018-04-22T03:07:56.824Z,56.40
2018-04-22T03:10:00.682Z,56.70
2018-04-22T03:12:04.762Z,57.30
2018-04-22T03:14:08.534Z,59.00
2018-04-22T03:16:12.315Z,60.10
2018-04-22T03:18:17.430Z,61.70
2018-04-22T03:20:21.357Z,61.70
2018-04-22T03:22:25.972Z,63.80
2018-04-22T03:24:29.931Z,63.70
2018-04-22T03:26:33.875Z,65.00
2018-04-22T03:28:37.690Z,66.10
2018-04-22T03:30:45.812Z,67.60
2018-04-22T03:32:49.641Z,69.10
2018-04-22T03:34:53.775Z,69.20
2018-04-22T03:36:58.119Z,69.60
2018-04-22T03:39:02.110Z,70.00
2018-04-22T03:41:05.916Z,69.90
2018-04-22T03:43:09.715Z,71.00
2018-04-22T03:45:15.165Z,71.30
2018-04-22T03:47:19.013Z,71.40
2018-04-22T03:49:25.423Z,72.00
2018-04-22T03:51:29.244Z,72.50
2018-04-22T03:53:33.797Z,73.30
2018-04-22T03:55:39.238Z,73.20
2018-04-22T03:57:43.877Z,72.90
2018-04-22T03:59:47.751Z,72.60
2018-04-22T04:01:53.835Z,72.80
2018-04-22T04:03:58.418Z,73.10
2018-04-22T04:06:02.189Z,73.20
2018-04-22T04:08:06.041Z,73.20
2018-04-22T04:10:10.780Z,73.50
2018-04-22T04:12:14.668Z,73.30
2018-04-22T04:14:19.193Z,74.70
2018-04-22T04:16:23.744Z,74.00
2018-04-22T04:18:37.251Z,73.90
2018-04-22T04:20:52.980Z,74.50
2018-04-22T04:22:58.032Z,74.50
2018-04-22T04:27:15.648Z,73.90
2018-04-22T04:29:19.406Z,74.10
2018-04-22T04:31:24.415Z,75.40
2018-04-22T04:33:28.333Z,75.40
2018-04-22T04:35:32.157Z,75.70
2018-04-22T04:37:36.505Z,75.40
2018-04-22T04:39:40.340Z,75.40
2018-04-22T04:41:44.960Z,75.10
2018-04-22T04:43:48.807Z,74.80
2018-04-22T04:45:52.626Z,74.80
2018-04-22T04:47:56.521Z,74.80
2018-04-22T04:50:00.827Z,74.90
2018-04-22T04:52:04.621Z,74.80
2018-04-22T04:54:09.427Z,74.60
2018-04-22T04:56:13.562Z,74.60
2018-04-22T04:58:17.853Z,74.40
2018-04-22T05:00:21.774Z,74.00
2018-04-22T05:02:25.914Z,73.40
2018-04-22T05:04:29.767Z,72.80
2018-04-22T05:06:33.567Z,72.20
2018-04-22T05:08:37.379Z,71.80
2018-04-22T05:10:41.176Z,71.30
2018-04-22T05:12:45.015Z,70.50
2018-04-22T05:14:52.076Z,70.20
2018-04-22T05:16:56.745Z,68.80
2018-04-22T05:19:00.514Z,68.80
2018-04-22T05:21:04.799Z,67.80
2018-04-22T05:23:08.657Z,67.30
2018-04-22T05:25:19.013Z,66.80
2018-04-22T05:27:24.362Z,66.00
2018-04-22T05:29:28.174Z,65.80
2018-04-22T05:31:32.215Z,64.80
2018-04-22T05:33:36.065Z,63.40
2018-04-22T05:35:39.843Z,63.20
2018-04-22T05:37:43.713Z,62.30
2018-04-22T05:39:48.279Z,61.10
2018-04-22T05:41:52.949Z,60.00
2018-04-22T05:43:58.882Z,60.00
2018-04-22T05:46:03.194Z,59.20
2018-04-22T05:48:07.019Z,59.10
2018-04-22T05:50:10.880Z,58.60
2018-04-22T05:52:14.988Z,58.00
2018-04-22T05:54:19.547Z,57.30
2018-04-22T05:56:23.341Z,57.30
2018-04-22T05:58:27.493Z,57.30
2018-04-22T06:00:31.325Z,56.60
2018-04-22T06:02:35.136Z,56.00
2018-04-22T06:04:40.014Z,55.70
2018-04-22T06:06:43.778Z,55.70
2018-04-22T06:08:47.587Z,55.50
2018-04-22T06:10:51.958Z,55.20
2018-04-22T06:12:55.714Z,55.00
2018-04-22T06:15:00.251Z,54.70
2018-04-22T06:17:04.500Z,55.70
2018-04-22T06:19:09.089Z,54.70
2018-04-22T06:21:13.052Z,54.60
2018-04-22T06:23:17.232Z,54.60
2018-04-22T06:25:21.083Z,54.70
2018-04-22T06:27:24.968Z,54.80
2018-04-22T06:29:28.824Z,54.00
2018-04-22T06:31:32.666Z,53.80
2018-04-22T06:33:36.512Z,53.50
2018-04-22T06:35:40.751Z,53.10
2018-04-22T06:37:44.691Z,52.80
2018-04-22T06:39:49.828Z,52.10
2018-04-22T06:41:56.172Z,51.30
2018-04-22T06:44:00.011Z,51.30
2018-04-22T06:46:03.988Z,51.20
2018-04-22T06:48:08.167Z,51.30
2018-04-22T06:50:11.940Z,51.60
2018-04-22T06:52:15.913Z,51.30
2018-04-22T06:54:20.534Z,51.10
2018-04-22T06:56:24.437Z,51.00
2018-04-22T06:58:29.071Z,50.60
2018-04-22T07:00:34.225Z,49.80
2018-04-22T07:02:38.093Z,49.80
2018-04-22T07:04:42.711Z,48.30
2018-04-22T07:06:46.979Z,48.30
2018-04-22T07:08:51.169Z,48.10
2018-04-22T07:10:55.677Z,48.00
2018-04-22T07:13:00.618Z,48.50
2018-04-22T07:15:06.288Z,47.50
2018-04-22T07:17:10.084Z,49.30
2018-04-22T07:19:13.894Z,50.20
2018-04-22T07:21:17.740Z,49.00
2018-04-22T07:23:21.648Z,48.90
2018-04-22T07:25:25.744Z,48.30
2018-04-22T07:27:29.584Z,47.30
2018-04-22T07:29:34.195Z,44.70
2018-04-22T07:31:39.163Z,44.40
2018-04-22T07:33:43.069Z,44.40
2018-04-22T07:35:47.049Z,45.10
2018-04-22T07:37:52.100Z,45.30
2018-04-22T07:39:56.008Z,45.20
2018-04-22T07:41:59.940Z,45.10
2018-04-22T07:44:06.512Z,44.90
2018-04-22T07:46:10.472Z,43.80
2018-04-22T07:48:14.407Z,44.00
2018-04-22T07:50:18.242Z,43.20
2018-04-22T07:52:22.735Z,42.20
2018-04-22T07:54:26.552Z,42.30
2018-04-22T07:56:30.407Z,41.70
2018-04-22T07:58:37.382Z,39.70
2018-04-22T08:00:41.985Z,39.50
2018-04-22T08:02:45.867Z,39.50
2018-04-22T08:04:49.743Z,39.70
2018-04-22T08:06:54.612Z,39.70
2018-04-22T08:08:58.499Z,39.60
2018-04-22T08:11:02.711Z,39.20
2018-04-22T08:13:06.584Z,38.70
2018-04-22T08:15:13.289Z,38.00
2018-04-22T08:17:17.426Z,37.70
2018-04-22T08:19:21.275Z,37.00
2018-04-22T08:21:25.852Z,36.40
2018-04-22T08:23:30.846Z,36.40
2018-04-22T08:25:34.692Z,36.10
2018-04-22T08:27:38.659Z,35.60
2018-04-22T08:29:42.454Z,35.50
2018-04-22T08:31:47.052Z,35.50
2018-04-22T08:33:51.534Z,35.30
2018-04-22T08:35:56.608Z,35.10
2018-04-22T08:38:00.504Z,35.20
2018-04-22T08:40:05.130Z,35.10
2018-04-22T08:42:12.143Z,34.50
2018-04-22T08:44:16.045Z,34.50
2018-04-22T08:46:19.932Z,34.00
2018-04-22T08:48:24.064Z,33.80
2018-04-22T08:50:27.984Z,33.70
2018-04-22T08:52:31.777Z,33.40
2018-04-22T08:54:36.385Z,33.20
2018-04-22T08:56:40.294Z,33.10
2018-04-22T08:58:44.188Z,32.70
2018-04-22T09:00:48.446Z,32.50
2018-04-22T09:02:52.297Z,32.00
2018-04-22T09:04:56.123Z,32.30
2018-04-22T09:07:00.351Z,32.10
2018-04-22T09:09:04.409Z,31.90
2018-04-22T09:11:09.030Z,31.50
2018-04-22T09:13:13.964Z,31.30
2018-04-22T09:15:18.564Z,31.20
2018-04-22T09:17:22.417Z,31.20
2018-04-22T09:19:29.019Z,31.00
2018-04-22T09:21:32.873Z,30.80
2018-04-22T09:23:36.793Z,30.20
2018-04-22T09:25:41.020Z,30.60
2018-04-22T09:27:44.853Z,30.70
2018-04-22T09:29:48.841Z,30.60
2018-04-22T09:31:53.989Z,29.90
2018-04-22T09:33:57.984Z,30.00
2018-04-22T09:36:02.039Z,29.90
2018-04-22T09:38:06.377Z,29.80
2018-04-22T09:40:10.237Z,29.60
2018-04-22T09:42:14.222Z,29.90
2018-04-22T09:44:18.418Z,29.90
2018-04-22T09:46:22.258Z,29.80
2018-04-22T09:48:26.110Z,29.90
2018-04-22T09:50:29.985Z,30.10
2018-04-22T09:52:34.759Z,29.50
2018-04-22T09:54:38.613Z,29.50
2018-04-22T09:56:43.537Z,30.70
2018-04-22T09:58:47.492Z,30.70
2018-04-22T10:00:55.486Z,31.60
2018-04-22T10:02:59.934Z,31.40
2018-04-22T10:05:08.395Z,31.50
2018-04-22T10:07:13.300Z,31.70
2018-04-22T10:09:17.452Z,31.70
2018-04-22T10:11:21.344Z,31.40
2018-04-22T10:13:25.323Z,31.30
2018-04-22T10:15:29.143Z,31.80
2018-04-22T10:17:33.001Z,31.90
2018-04-22T10:19:36.875Z,31.80
2018-04-22T10:21:41.022Z,32.40
2018-04-22T10:23:44.869Z,32.10
2018-04-22T10:25:49.531Z,31.80
2018-04-22T10:27:54.553Z,31.80
2018-04-22T10:29:58.348Z,31.80
2018-04-22T10:32:02.375Z,33.10
2018-04-22T10:34:06.480Z,33.00
2018-04-22T10:36:10.406Z,33.00
2018-04-22T10:38:14.453Z,33.10
2018-04-22T10:40:18.263Z,33.00
2018-04-22T10:42:22.127Z,31.90
2018-04-22T10:44:25.918Z,30.90
2018-04-22T10:46:30.355Z,31.10
2018-04-22T10:48:34.190Z,30.90
2018-04-22T10:50:38.457Z,31.00
2018-04-22T10:52:42.682Z,29.80
2018-04-22T10:54:46.544Z,29.00
2018-04-22T10:56:52.162Z,30.30
2018-04-22T10:58:56.502Z,30.30
2018-04-22T11:01:00.454Z,30.30
2018-04-22T11:03:04.464Z,28.80
2018-04-22T11:05:09.973Z,29.30
2018-04-22T11:07:13.876Z,30.00
2018-04-22T11:09:18.551Z,29.80
2018-04-22T11:11:23.228Z,29.60
2018-04-22T11:13:27.116Z,29.60
2018-04-22T11:15:31.729Z,28.90
2018-04-22T11:17:36.625Z,28.70
2018-04-22T11:19:40.495Z,28.60
2018-04-22T11:21:44.400Z,28.50
2018-04-22T11:23:48.667Z,28.10
2018-04-22T11:25:52.510Z,28.10
2018-04-22T11:27:56.461Z,28.30
2018-04-22T11:30:01.728Z,28.50
2018-04-22T11:32:05.673Z,28.50
2018-04-22T11:34:09.562Z,28.80
2018-04-22T11:36:13.532Z,28.40
2018-04-22T11:38:17.492Z,28.00
2018-04-22T11:40:21.454Z,27.90
2018-04-22T11:42:26.497Z,27.70
2018-04-22T11:44:30.388Z,27.70
2018-04-22T11:46:34.294Z,27.60
2018-04-22T11:48:39.700Z,27.80
2018-04-22T11:50:43.641Z,27.90
2018-04-22T11:52:47.440Z,27.80
2018-04-22T11:54:51.711Z,27.70
2018-04-22T11:56:56.432Z,27.70
2018-04-22T11:59:00.254Z,27.80
2018-04-22T12:01:04.126Z,27.50
2018-04-22T12:03:08.371Z,27.70
2018-04-22T12:05:12.302Z,27.60
2018-04-22T12:07:17.545Z,27.80
2018-04-22T12:09:21.379Z,27.60
2018-04-22T12:11:25.997Z,28.60
2018-04-22T12:13:30.221Z,28.70
2018-04-22T12:15:34.307Z,28.70
2018-04-22T12:17:38.967Z,28.60
2018-04-22T12:19:43.122Z,28.60
2018-04-22T12:21:46.960Z,28.80
2018-04-22T12:23:51.540Z,28.90
2018-04-22T12:25:55.382Z,28.90
2018-04-22T12:27:59.986Z,28.50
2018-04-22T12:30:04.856Z,28.50
2018-04-22T12:32:10.198Z,28.30
2018-04-22T12:34:14.091Z,28.20
2018-04-22T12:36:17.911Z,28.10
2018-04-22T12:38:29.079Z,28.40
2018-04-22T12:40:32.972Z,28.40
2018-04-22T12:42:36.992Z,28.10
2018-04-22T12:44:41.442Z,27.80
2018-04-22T12:46:45.280Z,27.70
2018-04-22T12:48:49.881Z,26.90
2018-04-22T12:50:53.710Z,26.80
2018-04-22T12:52:58.437Z,27.30
2018-04-22T12:55:03.964Z,28.20
2018-04-22T12:57:08.950Z,28.20
2018-04-22T12:59:12.876Z,28.80
2018-04-22T13:01:16.868Z,28.70
2018-04-22T13:03:21.254Z,28.80
2018-04-22T13:05:25.908Z,28.40
2018-04-22T13:07:29.784Z,28.40
2018-04-22T13:09:33.908Z,27.70
2018-04-22T13:11:37.718Z,27.00
2018-04-22T13:13:41.697Z,27.50
2018-04-22T13:15:46.661Z,27.60
2018-04-22T13:17:50.505Z,27.60
2018-04-22T13:19:54.336Z,27.50
2018-04-22T13:21:58.857Z,26.90
2018-04-22T13:24:03.564Z,26.90
2018-04-22T13:26:07.484Z,26.80
2018-04-22T13:28:14.429Z,27.60
2018-04-22T13:30:18.300Z,27.60
2018-04-22T13:32:22.295Z,27.50
2018-04-22T13:34:26.717Z,27.80
2018-04-22T13:36:30.525Z,27.90
2018-04-22T13:38:34.355Z,27.90
2018-04-22T13:40:39.491Z,27.70
2018-04-22T13:42:43.354Z,27.00
2018-04-22T13:44:47.578Z,27.30
2018-04-22T13:46:51.461Z,27.10
2018-04-22T13:48:56.406Z,26.40
2018-04-22T13:51:00.869Z,26.40
2018-04-22T13:53:05.045Z,26.50
2018-04-22T13:55:08.946Z,26.60
2018-04-22T13:57:12.802Z,26.50
2018-04-22T13:59:17.933Z,26.30
2018-04-22T14:01:21.807Z,26.60
2018-04-22T14:03:25.742Z,27.10
2018-04-22T14:05:29.835Z,26.60
2018-04-22T14:07:33.758Z,26.70
2018-04-22T14:09:37.638Z,26.80
2018-04-22T14:11:41.479Z,27.00
2018-04-22T14:13:45.402Z,26.50
2018-04-22T14:15:49.414Z,26.30
2018-04-22T14:17:53.607Z,26.60
2018-04-22T14:19:57.529Z,26.20
2018-04-22T14:22:02.942Z,25.50
2018-04-22T14:24:07.792Z,25.40
2018-04-22T14:26:12.478Z,25.40
2018-04-22T14:28:16.288Z,25.40
2018-04-22T14:30:21.477Z,25.40
2018-04-22T14:32:25.357Z,24.70
2018-04-22T14:34:29.152Z,24.90
2018-04-22T14:36:32.991Z,25.20
2018-04-22T14:38:36.998Z,25.50
2018-04-22T14:40:40.948Z,25.60
2018-04-22T14:42:44.782Z,26.00
2018-04-22T14:46:56.434Z,25.10
2018-04-22T14:49:07.024Z,25.10
2018-04-22T14:51:11.391Z,25.50
2018-04-22T14:53:15.540Z,26.10
2018-04-22T14:55:19.792Z,26.20
2018-04-22T14:57:24.507Z,25.40
2018-04-22T14:59:28.388Z,25.50
2018-04-22T15:01:32.272Z,25.80
2018-04-22T15:03:36.276Z,25.90
2018-04-22T15:05:40.098Z,26.30
2018-04-22T15:07:44.250Z,25.20
2018-04-22T15:09:49.182Z,25.80
2018-04-22T15:11:53.116Z,25.80
2018-04-22T15:13:57.355Z,25.70
2018-04-22T15:16:01.976Z,25.40
2018-04-22T15:18:05.784Z,25.30
2018-04-22T15:20:10.143Z,25.30
2018-04-22T15:22:14.806Z,25.00
2018-04-22T15:24:18.815Z,25.00
2018-04-22T15:26:25.103Z,24.80
2018-04-22T15:28:29.866Z,24.40
2018-04-22T15:30:34.442Z,23.70
2018-04-22T15:32:38.440Z,23.60
2018-04-22T15:34:42.249Z,23.30
2018-04-22T15:36:46.293Z,23.10
2018-04-22T15:38:52.822Z,22.50
2018-04-22T15:40:57.737Z,22.50
2018-04-22T15:43:01.544Z,22.50
2018-04-22T15:45:09.963Z,22.40
2018-04-22T15:47:13.826Z,22.60
2018-04-22T15:49:17.691Z,22.70
2018-04-22T15:51:21.907Z,22.40
2018-04-22T15:53:25.848Z,22.60
2018-04-22T15:55:30.559Z,23.00
2018-04-22T15:57:35.512Z,23.50
2018-04-22T15:59:39.294Z,23.50
2018-04-22T16:01:43.292Z,23.90
2018-04-22T16:03:47.389Z,24.10
2018-04-22T16:05:51.228Z,24.20
2018-04-22T16:07:55.935Z,24.80
2018-04-22T16:10:00.114Z,24.70
2018-04-22T16:12:04.622Z,24.90
2018-04-22T16:14:09.073Z,25.20
2018-04-22T16:16:13.257Z,25.10
2018-04-22T16:18:17.065Z,25.60
2018-04-22T16:20:20.934Z,25.80
2018-04-22T16:22:25.516Z,26.70
2018-04-22T16:24:29.458Z,26.10
2018-04-22T16:26:34.090Z,25.10
2018-04-22T16:28:38.241Z,25.10
2018-04-22T16:30:42.873Z,25.20
2018-04-22T16:32:46.765Z,24.30
2018-04-22T16:34:51.013Z,23.70
2018-04-22T16:36:54.891Z,23.80
2018-04-22T16:38:58.810Z,23.90
2018-04-22T16:41:02.923Z,23.60
2018-04-22T16:43:06.796Z,23.60
2018-04-22T16:45:14.851Z,23.20
2018-04-22T16:47:18.769Z,23.20
2018-04-22T16:49:22.763Z,23.20
2018-04-22T16:51:26.598Z,23.40
2018-04-22T16:53:34.236Z,23.50
2018-04-22T16:55:44.482Z,23.50
2018-04-22T16:57:48.374Z,24.40
2018-04-22T16:59:52.669Z,24.80
2018-04-22T17:01:56.732Z,25.00
2018-04-22T17:04:00.661Z,25.10
2018-04-22T17:06:04.974Z,25.00
2018-04-22T17:08:08.764Z,25.00
2018-04-22T17:10:13.807Z,25.00
2018-04-22T17:12:18.398Z,25.90
2018-04-22T17:14:22.389Z,25.80
2018-04-22T17:16:26.456Z,26.50
2018-04-22T17:18:32.792Z,26.90
2018-04-22T17:20:36.659Z,27.40
2018-04-22T17:22:40.632Z,27.90
2018-04-22T17:24:46.597Z,28.60
2018-04-22T17:26:50.482Z,28.60
2018-04-22T17:28:55.190Z,29.20
2018-04-22T17:30:59.515Z,29.10
2018-04-22T17:33:04.157Z,29.80
2018-04-22T17:35:09.100Z,29.80
2018-04-22T17:37:12.979Z,30.10
2018-04-22T17:39:18.556Z,30.80
2018-04-22T17:41:22.371Z,30.70
2018-04-22T17:43:26.475Z,31.00
2018-04-22T17:45:30.472Z,30.40
2018-04-22T17:47:34.444Z,30.60
2018-04-22T17:49:41.484Z,31.20
2018-04-22T17:51:45.351Z,31.10
2018-04-22T17:53:49.348Z,31.20
2018-04-22T17:55:53.649Z,31.20
2018-04-22T17:57:58.299Z,31.40
2018-04-22T18:00:02.330Z,31.40
2018-04-22T18:02:08.905Z,31.60
2018-04-22T18:04:13.350Z,31.50
2018-04-22T18:06:17.185Z,31.50
2018-04-22T18:08:21.770Z,31.70
2018-04-22T18:10:25.924Z,31.60
2018-04-22T18:12:29.912Z,31.80
2018-04-22T18:14:34.887Z,32.30
2018-04-22T18:16:38.740Z,32.20
2018-04-22T18:18:42.666Z,32.30
2018-04-22T18:20:47.663Z,32.20
2018-04-22T18:22:51.597Z,32.20
2018-04-22T18:24:56.347Z,32.20
2018-04-22T18:27:02.545Z,32.20
2018-04-22T18:29:06.341Z,31.80
2018-04-22T18:31:10.193Z,32.00
2018-04-22T18:33:14.837Z,31.80
2018-04-22T18:35:18.813Z,31.80
2018-04-22T18:37:23.457Z,31.50
2018-04-22T18:39:28.375Z,31.50
2018-04-22T18:41:32.259Z,31.40
2018-04-22T18:43:36.133Z,31.50
2018-04-22T18:45:40.292Z,31.40
2018-04-22T18:47:44.245Z,31.40
2018-04-22T18:49:48.911Z,31.70
2018-04-22T18:51:53.078Z,31.60
2018-04-22T18:53:57.004Z,31.60
2018-04-22T18:56:00.913Z,31.40
2018-04-22T18:58:04.814Z,31.70
2018-04-22T19:00:08.992Z,31.80
2018-04-22T19:02:12.847Z,31.80
2018-04-22T19:04:16.985Z,31.80
2018-04-22T19:06:21.554Z,31.60
2018-04-22T19:08:25.521Z,31.70
2018-04-22T19:10:29.821Z,31.70
2018-04-22T19:12:34.517Z,31.60
2018-04-22T19:14:38.469Z,31.60
2018-04-22T19:16:42.606Z,31.70
2018-04-22T19:18:46.520Z,31.70
2018-04-22T19:20:50.446Z,31.90
2018-04-22T19:22:55.219Z,31.90
2018-04-22T19:24:59.117Z,31.90
2018-04-22T19:27:02.940Z,31.90
2018-04-22T19:29:06.781Z,32.00
2018-04-22T19:31:10.595Z,32.20
2018-04-22T19:33:14.401Z,32.40
2018-04-22T19:35:19.601Z,32.20
2018-04-22T19:37:23.802Z,32.20
2018-04-22T19:39:27.646Z,32.20
2018-04-22T19:41:31.781Z,32.10
2018-04-22T19:43:35.673Z,32.10
2018-04-22T19:45:39.583Z,32.20
2018-04-22T19:47:43.551Z,32.20
2018-04-22T19:49:47.394Z,32.10
2018-04-22T19:51:51.260Z,32.10
2018-04-22T19:53:55.228Z,31.70
2018-04-22T19:55:59.073Z,31.90
2018-04-22T19:58:02.878Z,31.90
2018-04-22T20:00:10.378Z,32.00
2018-04-22T20:02:14.278Z,31.90
2018-04-22T20:04:18.887Z,32.00
2018-04-22T20:06:23.304Z,31.90
2018-04-22T20:08:27.175Z,32.20
2018-04-22T20:10:31.760Z,32.20
2018-04-22T20:12:36.688Z,32.00
2018-04-22T20:14:40.583Z,32.10
2018-04-22T20:16:44.433Z,31.90
2018-04-22T20:18:48.341Z,31.90
2018-04-22T20:20:52.239Z,31.90
2018-04-22T20:22:56.828Z,32.10
2018-04-22T20:25:00.985Z,32.00
2018-04-22T20:27:04.978Z,32.10
2018-04-22T20:29:09.658Z,32.10
2018-04-22T20:31:13.886Z,32.10
2018-04-22T20:33:18.660Z,32.10
2018-04-22T20:35:22.493Z,32.10
2018-04-22T20:37:26.783Z,32.20
2018-04-22T20:39:30.684Z,32.40
2018-04-22T20:41:35.254Z,32.70
2018-04-22T20:43:39.151Z,32.70
2018-04-22T20:45:43.060Z,32.90
2018-04-22T20:47:46.885Z,33.30
2018-04-22T20:49:53.561Z,33.40
2018-04-22T20:51:57.435Z,33.60
2018-04-22T20:54:01.497Z,33.80
2018-04-22T20:56:05.985Z,34.10
2018-04-22T20:58:10.746Z,34.30
2018-04-22T21:00:15.662Z,34.30
2018-04-22T21:02:19.941Z,34.60
2018-04-22T21:04:23.743Z,34.80
2018-04-22T21:06:27.636Z,35.00
2018-04-22T21:08:31.569Z,35.20
2018-04-22T21:10:35.535Z,35.20
2018-04-22T21:12:39.385Z,35.50
2018-04-22T21:14:44.619Z,35.80
2018-04-22T21:16:48.547Z,36.00
2018-04-22T21:18:53.224Z,36.20
2018-04-22T21:20:57.343Z,36.10
2018-04-22T21:23:01.176Z,36.50
2018-04-22T21:25:05.053Z,36.60
2018-04-22T21:27:09.574Z,37.60
2018-04-22T21:29:13.453Z,37.00
2018-04-22T21:31:17.295Z,37.30
2018-04-22T21:33:21.122Z,37.50
2018-04-22T21:35:25.817Z,38.00
2018-04-22T21:37:29.666Z,38.00
2018-04-22T21:39:34.412Z,38.10
2018-04-22T21:41:38.275Z,38.20
2018-04-22T21:43:42.855Z,38.70
2018-04-22T21:45:47.096Z,38.60
2018-04-22T21:47:51.011Z,39.00
2018-04-22T21:49:54.867Z,39.00
2018-04-22T21:51:59.037Z,39.20
2018-04-22T21:54:02.986Z,39.30
2018-04-22T21:56:07.060Z,39.40
2018-04-22T21:58:11.354Z,39.70
2018-04-22T22:00:17.504Z,39.70
2018-04-22T22:02:21.450Z,39.90
2018-04-22T22:04:26.629Z,40.00
2018-04-22T22:06:30.452Z,40.10
2018-04-22T22:08:34.243Z,40.10
2018-04-22T22:10:38.505Z,40.20
2018-04-22T22:12:43.112Z,40.50
2018-04-22T22:14:46.998Z,40.50
2018-04-22T22:16:51.073Z,40.60
2018-04-22T22:18:54.949Z,40.90
2018-04-22T22:20:59.134Z,41.00
2018-04-22T22:23:03.308Z,41.30
2018-04-22T22:25:07.181Z,41.40
2018-04-22T22:27:11.027Z,41.40
2018-04-22T22:29:14.800Z,41.90
2018-04-22T22:31:18.628Z,41.90
2018-04-22T22:33:22.405Z,41.90
2018-04-22T22:35:26.671Z,42.10
2018-04-22T22:37:30.430Z,42.30
2018-04-22T22:39:35.363Z,42.40
2018-04-22T22:41:39.617Z,42.30
2018-04-22T22:43:43.518Z,42.40
2018-04-22T22:45:47.393Z,42.40
2018-04-22T22:47:51.515Z,42.50
2018-04-22T22:49:55.343Z,42.70
2018-04-22T22:51:59.942Z,42.80
2018-04-22T22:54:03.782Z,42.80
2018-04-22T22:56:08.424Z,43.10
2018-04-22T22:58:12.180Z,43.10
2018-04-22T23:00:17.199Z,43.20
2018-04-22T23:02:21.038Z,43.20
2018-04-22T23:04:25.611Z,43.50
2018-04-22T23:06:29.712Z,43.50
2018-04-22T23:08:33.629Z,43.60
2018-04-22T23:10:37.513Z,43.60
2018-04-22T23:12:41.676Z,43.70
2018-04-22T23:14:45.558Z,43.80
2018-04-22T23:16:49.423Z,44.00
2018-04-22T23:18:53.212Z,44.20
2018-04-22T23:20:57.831Z,44.60
2018-04-22T23:23:01.614Z,44.60
2018-04-22T23:25:05.417Z,44.70
2018-04-22T23:27:09.136Z,44.80
2018-04-22T23:29:12.959Z,44.90
2018-04-22T23:31:18.038Z,46.10
2018-04-22T23:33:22.002Z,45.40
2018-04-22T23:35:25.818Z,45.80
2018-04-22T23:37:30.160Z,45.90
2018-04-22T23:39:34.007Z,46.10
2018-04-22T23:41:38.464Z,46.30
2018-04-22T23:43:42.734Z,46.40
2018-04-22T23:45:46.526Z,46.70
2018-04-22T23:47:50.296Z,47.00
2018-04-22T23:49:54.376Z,47.20
2018-04-22T23:51:58.137Z,47.60
2018-04-22T23:54:01.995Z,47.80
2018-04-22T23:56:06.417Z,48.10
2018-04-22T23:58:10.294Z,48.60
